Terminal Aerodrome Forecast
Issued by NWS

Home | Current Version | Previous Version | Graphics & Text | Print | Product List | Glossary On
Versions: 1 2 3 4 5 6 7 8 9 10 11 12 13 14 15 16 17 18 19 20 21 22 23 24 25
219
FTUS43 KTOP 220535
TAFFOE
TAF
KFOE 220535Z 2206/2306 10005KT P6SM VCSH OVC050
     FM220900 02006KT P6SM OVC040
      TEMPO 2210/2214 5SM BR OVC022
     FM221600 34013G21KT P6SM SCT035
     FM230000 33010KT P6SM SCT070=

USA.gov is the U.S. government's official web portal to all federal, state and local government web resources and services.